CST,Max TemperatureF,Mean TemperatureF,Min TemperatureF,Max Dew PointF,MeanDew PointF,Min DewpointF,Max Humidity, Mean Humidity, Min Humidity, Max Sea Level PressureIn, Mean Sea Level PressureIn, Min Sea Level PressureIn, Max VisibilityMiles, Mean VisibilityMiles, Min VisibilityMiles, Max Wind SpeedMPH, Mean Wind SpeedMPH, Max Gust SpeedMPH,PrecipitationIn, CloudCover, Events, WindDirDegrees
2014-2-1,25,21,17,23,20,16,100,95,89,30.15,29.96,29.84,10,6,0,14,8,,0.13,7,Snow,352
2014-2-2,18,3,-12,15,0,-15,91,84,74,30.34,30.28,30.15,10,10,10,15,8,22,0.00,1,,304
2014-2-3,17,0,-18,7,-6,-22,96,80,56,30.39,30.35,30.32,10,9,0,5,1,,0.00,1,Fog-Snow,154
2014-2-4,19,10,1,16,10,-1,96,81,57,30.37,30.25,30.10,10,7,1,18,6,21,0.00,7,Snow,50
2014-2-5,18,8,-2,17,9,-6,96,88,80,30.52,30.32,30.06,10,7,2,20,15,24,0.00,5,Snow,313
2014-2-6,5,-3,-11,-3,-8,-15,87,79,68,30.54,30.48,30.43,10,10,10,13,9,,0.00,0,,260
2014-2-7,12,1,-10,5,-3,-13,89,77,65,30.44,30.37,30.31,10,10,10,12,5,,0.00,3,,194
2014-2-8,18,14,9,18,12,4,100,91,76,30.30,30.17,30.10,10,7,1,9,4,,0.01,8,Snow,161
2014-2-9,18,6,-5,19,6,-9,100,89,80,30.37,30.24,30.12,10,9,0,14,6,,0.02,2,Snow,291
2014-2-10,4,-6,-17,-2,-11,-21,89,82,70,30.49,30.44,30.37,10,9,1,10,7,,0.00,0,Snow,291
2014-2-11,10,-4,-19,-1,-9,-24,90,76,60,30.52,30.44,30.32,10,10,1,7,3,,0.00,0,Snow,180
2014-2-12,25,12,-2,15,6,-6,93,74,58,30.31,30.14,29.98,10,10,10,10,6,,0.00,5,,152
2014-2-13,36,23,10,30,18,8,89,81,67,29.97,29.76,29.59,10,10,7,20,9,28,0.00,2,,205
2014-2-14,18,9,0,14,9,-1,95,86,76,30.04,29.83,29.69,10,8,0,16,8,22,0.06,4,Snow,307
2014-2-15,20,6,-9,19,6,-13,95,89,73,30.09,30.01,29.92,10,9,0,10,5,,0.04,4,Snow,169
2014-2-16,25,18,11,19,16,11,100,84,69,30.22,30.14,29.94,10,9,5,16,6,18,0.00,4,,6
2014-2-17,36,28,20,32,25,16,100,90,77,30.14,29.89,29.74,10,6,0,22,12,26,0.22,6,Snow-Thunderstorm,185
2014-2-18,47,30,14,33,28,14,100,73,50,29.94,29.78,29.66,10,10,10,21,9,29,0.00,0,,195
2014-2-19,39,32,26,33,31,26,100,86,72,29.98,29.90,29.75,10,10,10,14,8,,0.00,1,Rain-Thunderstorm,214
2014-2-20,44,39,34,45,36,29,100,97,80,29.79,29.50,29.16,10,5,0,32,11,46,1.85,8,Fog-Rain-Snow-Thunderstorm,105
2014-2-21,37,31,25,30,24,17,96,77,55,29.88,29.74,29.49,10,9,2,28,18,36,0.00,3,Snow,253
2014-2-22,32,26,20,26,22,15,100,79,50,30.11,30.01,29.89,10,10,10,16,4,20,0.00,4,,329
2014-2-23,25,21,17,17,13,10,85,72,59,30.32,30.25,30.12,10,10,10,16,11,18,0.00,1,,308
2014-2-24,24,19,14,16,12,10,93,74,59,30.37,30.30,30.25,10,10,1,13,7,16,0.00,3,Snow,296
2014-2-25,17,12,7,16,7,0,100,81,63,30.32,30.29,30.26,10,9,1,22,10,29,0.00,2,Snow,301
2014-2-26,21,10,-2,14,1,-7,84,69,53,30.34,30.10,29.78,10,10,7,20,14,26,0.00,0,,256
2014-2-27,20,11,2,13,-3,-8,76,61,48,30.18,30.08,29.79,10,10,10,26,13,36,0.00,1,,326
2014-2-28,36,20,4,26,12,-2,80,68,53,30.13,30.01,29.91,10,10,10,15,8,24,0.00,2,,133